< Typhoon 198009 1980 Season Typhoon 198011 >
Typhoon 198010 (LEX)
General InformationTrack Information on Google MapsDetailed Wind Information || Disaster Info.ResourceGoogle EarthGE AnimationAtom FeedGeoJSON
Detalied Best Track (Time Zone = UTC)
Year Month Day Hour Lat. Long. Pressure (hPa) Wind (kt) Class Image Chart
1980 7 28 00 22.6 148.4 1008 0 2 -- Chart
1980 7 28 06 22.9 148.3 1008 0 2 -- Chart
1980 7 28 12 23.2 148.3 1006 0 2 -- Chart
1980 7 28 18 23.6 148.4 1004 0 2 -- Chart
1980 7 29 00 23.8 148.5 1002 0 2 -- Chart
1980 7 29 06 24.1 148.8 1000 0 2 -- Chart
1980 7 29 12 24.3 149.0 998 0 2 -- Chart
1980 7 29 18 24.6 149.2 996 35 3 -- Chart
1980 7 30 00 24.9 149.3 994 45 3 -- Chart
1980 7 30 06 25.2 149.1 990 55 4 -- Chart
1980 7 30 12 25.4 148.9 985 55 4 -- Chart
1980 7 30 18 25.4 148.7 980 55 4 -- Chart
1980 7 31 00 25.2 148.5 975 60 4 -- Chart
1980 7 31 06 25.2 148.0 970 65 5 -- Chart
1980 7 31 12 24.9 147.7 970 65 5 -- Chart
1980 7 31 18 24.6 147.4 970 65 5 -- Chart
1980 8 1 00 24.5 146.6 970 65 5 -- Chart
1980 8 1 06 24.2 146.3 965 70 5 -- Chart
1980 8 1 12 24.0 145.6 965 70 5 -- Chart
1980 8 1 18 23.8 145.0 965 70 5 -- Chart
1980 8 2 00 23.5 144.5 965 70 5 -- Chart
1980 8 2 06 23.8 144.5 965 70 5 -- Chart
1980 8 2 12 24.4 144.4 965 75 5 -- Chart
1980 8 2 18 25.0 144.4 965 70 5 -- Chart
1980 8 3 00 25.6 144.4 960 70 5 -- Chart
1980 8 3 06 26.2 144.4 960 70 5 -- Chart
1980 8 3 12 26.8 144.4 965 70 5 -- Chart
1980 8 3 18 27.4 144.4 965 70 5 -- Chart
1980 8 4 00 28.0 144.5 970 65 5 -- Chart
1980 8 4 06 28.6 144.6 970 65 5 -- Chart
1980 8 4 12 29.2 144.9 970 65 5 -- Chart
1980 8 4 18 29.7 145.4 970 65 5 -- Chart
1980 8 5 00 30.1 146.2 975 65 5 -- Chart
1980 8 5 06 30.5 147.1 980 55 4 -- Chart
1980 8 5 12 31.0 147.8 980 55 4 -- Chart
1980 8 5 18 31.5 148.5 980 55 4 -- Chart
1980 8 6 00 32.1 149.2 980 55 4 -- Chart
1980 8 6 06 32.6 150.1 980 55 4 -- Chart
1980 8 6 12 33.3 151.5 980 55 4 -- Chart
1980 8 6 18 34.0 152.9 985 45 3 -- Chart
1980 8 7 00 34.7 154.2 985 45 3 -- Chart
1980 8 7 06 35.8 155.4 985 45 3 -- Chart
1980 8 7 12 37.0 156.0 985 45 3 -- Chart
1980 8 7 18 38.3 156.1 985 45 3 -- Chart
1980 8 8 00 39.7 156.0 985 45 3 -- Chart
1980 8 8 06 41.0 156.0 985 45 3 -- Chart
1980 8 8 12 42.0 156.0 990 45 3 -- Chart
1980 8 8 18 43.5 156.0 994 0 6 -- Chart
1980 8 9 00 45.0 156.0 996 0 6 -- Chart
1980 8 9 06 47.0 156.0 1000 0 6 -- Chart
1980 8 9 12 50.0 157.0 1002 0 6 -- Chart
1980 8 9 18 53.0 160.0 1002 0 6 -- Chart
1980 8 10 00 57.0 162.0 1002 0 6 -- Chart
1980 8 10 06 58.0 163.0 1002 0 6 -- Chart
1980 8 10 12 58.0 163.0 1004 0 6 -- Chart
1980 8 10 18 58.0 163.0 1004 0 6 -- Chart
1980 8 11 00 58.0 163.0 1004 0 6 -- Chart
1980 8 11 06 57.0 164.0 1004 0 6 -- Chart
1980 8 11 12 56.0 164.0 1004 0 6 -- Chart
1980 8 11 18 55.0 165.0 1002 0 6 -- Chart
1980 8 12 00 54.0 166.0 1002 0 6 -- Chart
1980 8 12 06 53.0 167.0 1000 0 6 -- Chart
1980 8 12 12 53.0 169.0 1000 0 6 -- Chart
1980 8 12 18 53.0 171.0 998 0 6 -- Chart
1980 8 13 00 53.0 173.0 996 0 6 -- Chart
1980 8 13 06 53.5 176.0 996 0 6 -- Chart
1980 8 13 12 54.0 179.0 996 0 6 -- Chart
Japan Meteorological Agency Best Track Data | Correction Date : 1992-10-21
< Typhoon 198009 1980 Season Typhoon 198011 >

Help